createdAt,value
2019-03-29T00:01:28.722Z,70.08
2019-03-29T00:03:56.966Z,70.12
2019-03-29T00:06:25.192Z,70.17
2019-03-29T00:08:53.434Z,70.33
2019-03-29T00:11:21.685Z,70.12
2019-03-29T00:13:50.040Z,70.24
2019-03-29T00:16:18.422Z,70.18
2019-03-29T00:18:46.639Z,70.49
2019-03-29T00:21:14.855Z,70.35
2019-03-29T00:23:43.118Z,70.29
2019-03-29T00:26:11.332Z,70.32
2019-03-29T00:28:39.558Z,70.47
2019-03-29T00:31:07.786Z,70.49
2019-03-29T00:33:36.004Z,70.62
2019-03-29T00:36:04.241Z,70.46
2019-03-29T00:38:32.470Z,70.58
2019-03-29T00:41:00.698Z,70.66
2019-03-29T00:43:28.924Z,70.72
2019-03-29T00:45:57.142Z,70.54
2019-03-29T00:48:25.372Z,70.75
2019-03-29T00:50:53.587Z,70.65
2019-03-29T00:53:21.829Z,70.71
2019-03-29T00:55:50.052Z,70.79
2019-03-29T00:58:18.283Z,70.72
2019-03-29T01:00:46.519Z,70.80
2019-03-29T01:03:14.746Z,70.67
2019-03-29T01:05:43.009Z,70.59
2019-03-29T01:08:11.247Z,70.83
2019-03-29T01:10:39.462Z,70.71
2019-03-29T01:13:07.687Z,70.97
2019-03-29T01:15:35.967Z,70.83
2019-03-29T01:18:04.409Z,70.72
2019-03-29T01:20:32.628Z,70.72
2019-03-29T01:23:00.858Z,70.83
2019-03-29T01:25:29.133Z,70.80
2019-03-29T01:27:57.443Z,70.87
2019-03-29T01:30:25.689Z,70.83
2019-03-29T01:32:53.955Z,70.82
2019-03-29T01:35:22.248Z,70.68
2019-03-29T01:37:50.504Z,70.79
2019-03-29T01:40:18.722Z,70.87
2019-03-29T01:42:46.958Z,70.76
2019-03-29T01:45:15.193Z,70.90
2019-03-29T01:47:43.416Z,70.83
2019-03-29T01:50:11.654Z,70.71
2019-03-29T01:52:39.940Z,70.80
2019-03-29T01:55:08.178Z,70.77
2019-03-29T01:57:36.390Z,70.70
2019-03-29T02:00:05.263Z,70.84
2019-03-29T02:02:33.467Z,70.85
2019-03-29T02:05:01.706Z,70.89
2019-03-29T02:07:29.906Z,70.94
2019-03-29T02:09:58.131Z,70.74
2019-03-29T02:12:26.353Z,70.99
2019-03-29T02:14:54.570Z,70.90
2019-03-29T02:17:22.829Z,70.97
2019-03-29T02:19:51.051Z,70.97
2019-03-29T02:22:19.274Z,71.06
2019-03-29T02:24:47.492Z,70.95
2019-03-29T02:27:15.717Z,71.03
2019-03-29T02:29:43.942Z,71.09
2019-03-29T02:32:12.170Z,71.22
2019-03-29T02:34:40.386Z,71.23
2019-03-29T02:37:08.640Z,71.20
2019-03-29T02:39:36.856Z,71.29
2019-03-29T02:42:05.081Z,71.36
2019-03-29T02:44:34.852Z,71.36
2019-03-29T02:47:03.246Z,71.42
2019-03-29T02:49:31.454Z,71.37
2019-03-29T02:51:59.679Z,71.40
2019-03-29T02:54:27.905Z,71.51
2019-03-29T02:56:56.139Z,71.65
2019-03-29T02:59:24.360Z,71.71
2019-03-29T03:01:52.584Z,71.77
2019-03-29T03:04:20.807Z,71.79
2019-03-29T03:06:49.043Z,71.75
2019-03-29T03:09:17.243Z,71.90
2019-03-29T03:11:45.474Z,71.94
2019-03-29T03:14:13.856Z,71.96
2019-03-29T03:16:42.105Z,71.99
2019-03-29T03:19:10.446Z,72.00
2019-03-29T03:21:38.613Z,72.09
2019-03-29T03:24:06.856Z,72.17
2019-03-29T03:26:35.091Z,72.25
2019-03-29T03:29:03.314Z,72.32
2019-03-29T03:31:31.549Z,72.38
2019-03-29T03:33:59.763Z,72.43
2019-03-29T03:36:28.016Z,72.49
2019-03-29T03:38:56.255Z,72.56
2019-03-29T03:41:24.526Z,72.62
2019-03-29T03:43:52.727Z,72.62
2019-03-29T03:46:21.070Z,72.67
2019-03-29T03:48:49.249Z,72.74
2019-03-29T03:51:17.636Z,72.77
2019-03-29T03:53:45.835Z,72.77
2019-03-29T03:56:14.315Z,72.70
2019-03-29T03:58:42.535Z,72.70
2019-03-29T04:01:10.775Z,72.73
2019-03-29T04:03:39.017Z,72.73
2019-03-29T04:06:07.230Z,72.73
2019-03-29T04:08:35.557Z,72.74
2019-03-29T04:11:03.844Z,72.68
2019-03-29T04:13:32.083Z,72.69
2019-03-29T04:16:00.285Z,72.63
2019-03-29T04:18:28.515Z,72.72
2019-03-29T04:20:56.740Z,72.61
2019-03-29T04:23:24.959Z,72.63
2019-03-29T04:25:53.176Z,72.68
2019-03-29T04:28:21.411Z,72.37
2019-03-29T04:30:49.624Z,72.64
2019-03-29T04:33:17.838Z,72.67
2019-03-29T04:35:46.072Z,72.42
2019-03-29T04:38:14.291Z,72.46
2019-03-29T04:40:42.549Z,72.37
2019-03-29T04:43:10.763Z,72.31
2019-03-29T04:45:38.983Z,72.37
2019-03-29T04:48:07.351Z,72.05
2019-03-29T04:50:35.593Z,71.77
2019-03-29T04:53:03.824Z,71.73
2019-03-29T04:55:32.037Z,71.37
2019-03-29T04:58:00.278Z,71.62
2019-03-29T05:00:28.489Z,71.40
2019-03-29T05:02:56.720Z,71.56
2019-03-29T05:05:24.943Z,71.37
2019-03-29T05:07:53.162Z,71.49
2019-03-29T05:10:22.076Z,71.47
2019-03-29T05:12:50.297Z,71.09
2019-03-29T05:15:18.514Z,71.01
2019-03-29T05:17:46.743Z,71.17
2019-03-29T05:20:14.968Z,70.55
2019-03-29T05:22:43.195Z,70.49
2019-03-29T05:25:11.402Z,70.82
2019-03-29T05:27:39.655Z,70.68
2019-03-29T05:30:07.867Z,70.63
2019-03-29T05:32:36.093Z,70.50
2019-03-29T05:35:05.876Z,70.26
2019-03-29T05:37:34.338Z,70.27
2019-03-29T05:40:02.552Z,69.88
2019-03-29T05:42:30.765Z,70.13
2019-03-29T05:44:58.986Z,70.01
2019-03-29T05:47:27.222Z,70.21
2019-03-29T05:49:55.441Z,69.93
2019-03-29T05:52:23.681Z,70.04
2019-03-29T05:54:51.904Z,69.76
2019-03-29T05:57:20.120Z,69.82
2019-03-29T05:59:48.343Z,69.66
2019-03-29T06:02:16.632Z,69.33
2019-03-29T06:04:44.843Z,69.12
2019-03-29T06:07:13.071Z,69.17
2019-03-29T06:09:41.294Z,69.43
2019-03-29T06:12:09.576Z,69.12
2019-03-29T06:14:37.784Z,68.94
2019-03-29T06:17:06.021Z,69.07
2019-03-29T06:19:34.241Z,69.05
2019-03-29T06:22:02.495Z,69.23
2019-03-29T06:24:30.709Z,68.85
2019-03-29T06:26:58.922Z,68.67
2019-03-29T06:29:27.155Z,68.87
2019-03-29T06:31:55.449Z,68.78
2019-03-29T06:34:23.684Z,68.78
2019-03-29T06:36:52.758Z,69.01
2019-03-29T06:39:21.446Z,68.97
2019-03-29T06:41:49.663Z,68.84
2019-03-29T06:44:17.887Z,68.87
2019-03-29T06:46:46.107Z,67.81
2019-03-29T06:49:14.352Z,68.35
2019-03-29T06:51:42.574Z,68.10
2019-03-29T06:54:10.792Z,67.71
2019-03-29T06:56:39.026Z,67.46
2019-03-29T06:59:07.243Z,67.16
2019-03-29T07:01:35.644Z,67.67
2019-03-29T07:04:03.861Z,67.00
2019-03-29T07:06:32.090Z,66.74
2019-03-29T07:09:00.359Z,65.47
2019-03-29T07:11:28.584Z,65.47
2019-03-29T07:13:58.139Z,65.01
2019-03-29T07:16:26.633Z,64.73
2019-03-29T07:18:54.858Z,64.93
2019-03-29T07:21:23.090Z,64.30
2019-03-29T07:23:51.316Z,63.93
2019-03-29T07:26:19.617Z,62.32
2019-03-29T07:28:47.860Z,61.89
2019-03-29T07:31:16.097Z,60.96
2019-03-29T07:33:44.306Z,60.26
2019-03-29T07:36:12.527Z,59.13
2019-03-29T07:38:40.749Z,59.64
2019-03-29T07:41:08.967Z,59.22
2019-03-29T07:43:37.207Z,58.88
2019-03-29T07:46:05.493Z,58.34
2019-03-29T07:48:33.712Z,58.33
2019-03-29T07:51:01.937Z,57.79
2019-03-29T07:53:30.163Z,58.99
2019-03-29T07:55:58.390Z,56.92
2019-03-29T07:58:26.630Z,57.56
2019-03-29T08:00:54.847Z,57.23
2019-03-29T08:03:23.582Z,55.80
2019-03-29T08:05:52.370Z,55.31
2019-03-29T08:08:24.667Z,54.98
2019-03-29T08:10:53.451Z,55.46
2019-03-29T08:13:20.510Z,54.92
2019-03-29T08:15:48.709Z,55.15
2019-03-29T08:18:16.932Z,53.90
2019-03-29T08:20:45.145Z,54.40
2019-03-29T08:23:13.412Z,54.07
2019-03-29T08:25:41.638Z,54.28
2019-03-29T08:28:09.854Z,53.50
2019-03-29T08:30:38.079Z,53.90
2019-03-29T08:33:06.296Z,53.54
2019-03-29T08:35:34.537Z,53.12
2019-03-29T08:38:05.980Z,52.81
2019-03-29T08:40:32.689Z,53.12
2019-03-29T08:43:00.909Z,52.14
2019-03-29T08:45:29.133Z,51.52
2019-03-29T08:47:57.362Z,51.95
2019-03-29T08:50:25.577Z,51.58
2019-03-29T08:52:53.799Z,50.69
2019-03-29T08:55:22.016Z,49.97
2019-03-29T08:57:50.245Z,49.37
2019-03-29T09:00:29.462Z,49.64
2019-03-29T09:02:57.688Z,49.13
2019-03-29T09:05:25.973Z,47.98
2019-03-29T09:07:54.197Z,48.44
2019-03-29T09:10:28.145Z,47.39
2019-03-29T09:12:56.363Z,46.32
2019-03-29T09:15:24.606Z,46.52
2019-03-29T09:17:52.856Z,46.63
2019-03-29T09:20:21.072Z,44.78
2019-03-29T09:22:49.312Z,44.78
2019-03-29T09:25:20.867Z,43.75
2019-03-29T09:27:47.472Z,44.19
2019-03-29T09:30:15.739Z,43.40
2019-03-29T09:32:44.237Z,43.04
2019-03-29T09:35:12.494Z,42.60
2019-03-29T09:37:40.701Z,42.14
2019-03-29T09:40:08.921Z,40.39
2019-03-29T09:42:37.133Z,39.84
2019-03-29T09:45:07.021Z,40.06
2019-03-29T09:47:40.106Z,39.46
2019-03-29T09:50:10.147Z,39.17
2019-03-29T09:52:36.923Z,39.17
2019-03-29T09:55:05.542Z,38.97
2019-03-29T09:57:38.204Z,38.68
2019-03-29T10:00:19.114Z,38.42
2019-03-29T10:02:39.209Z,38.81
2019-03-29T10:05:07.425Z,38.86
2019-03-29T10:07:35.647Z,39.11
2019-03-29T10:10:05.306Z,39.23
2019-03-29T10:12:43.482Z,38.22
2019-03-29T10:15:05.522Z,38.76
2019-03-29T10:17:33.818Z,38.04
2019-03-29T10:20:02.100Z,39.74
2019-03-29T10:22:30.371Z,38.53
2019-03-29T10:25:01.829Z,37.89
2019-03-29T10:27:28.545Z,37.71
2019-03-29T10:29:56.792Z,37.40
2019-03-29T10:32:25.014Z,38.34
2019-03-29T10:34:53.244Z,38.08
2019-03-29T10:37:21.531Z,38.41
2019-03-29T10:39:49.768Z,37.29
2019-03-29T10:42:18.003Z,37.31
2019-03-29T10:44:49.276Z,38.24
2019-03-29T10:47:16.149Z,37.74
2019-03-29T10:49:44.383Z,37.30
2019-03-29T10:52:12.620Z,37.26
2019-03-29T10:54:40.833Z,37.68
2019-03-29T10:57:09.056Z,37.35
2019-03-29T10:59:37.291Z,37.34
2019-03-29T11:02:05.511Z,37.74
2019-03-29T11:04:33.730Z,38.22
2019-03-29T11:07:01.953Z,38.26
2019-03-29T11:09:30.182Z,38.10
2019-03-29T11:11:58.397Z,38.17
2019-03-29T11:14:26.613Z,37.58
2019-03-29T11:16:54.828Z,38.07
2019-03-29T11:19:23.051Z,38.90
2019-03-29T11:21:51.273Z,39.27
2019-03-29T11:24:19.539Z,37.99
2019-03-29T11:26:47.752Z,37.19
2019-03-29T11:29:15.960Z,36.92
2019-03-29T11:31:44.564Z,37.74
2019-03-29T11:34:12.778Z,36.96
2019-03-29T11:36:41.050Z,36.64
2019-03-29T11:39:09.264Z,36.54
2019-03-29T11:41:37.483Z,36.67
2019-03-29T11:44:05.699Z,36.10
2019-03-29T11:46:33.917Z,37.17
2019-03-29T11:49:02.136Z,36.59
2019-03-29T11:51:30.357Z,36.88
2019-03-29T11:53:58.645Z,36.37
2019-03-29T11:56:26.887Z,37.37
2019-03-29T11:58:55.106Z,36.58
2019-03-29T12:01:23.344Z,35.79
2019-03-29T12:03:51.566Z,36.87
2019-03-29T12:06:19.776Z,36.09
2019-03-29T12:08:48.010Z,35.56
2019-03-29T12:11:16.243Z,34.82
2019-03-29T12:13:44.476Z,35.27
2019-03-29T12:16:12.708Z,35.17
2019-03-29T12:18:40.930Z,34.81
2019-03-29T12:21:09.156Z,36.28
2019-03-29T12:23:37.395Z,34.85
2019-03-29T12:26:05.786Z,36.18
2019-03-29T12:28:34.007Z,35.47
2019-03-29T12:31:02.225Z,33.57
2019-03-29T12:33:30.446Z,34.17
2019-03-29T12:35:58.669Z,34.07
2019-03-29T12:38:26.908Z,34.25
2019-03-29T12:40:55.136Z,33.89
2019-03-29T12:43:23.363Z,33.80
2019-03-29T12:45:51.588Z,34.22
2019-03-29T12:48:19.806Z,34.44
2019-03-29T12:50:48.030Z,34.62
2019-03-29T12:53:16.258Z,34.88
2019-03-29T12:55:44.475Z,34.99
2019-03-29T12:58:12.699Z,35.55
2019-03-29T13:00:40.923Z,34.92
2019-03-29T13:03:09.154Z,34.73
2019-03-29T13:05:37.475Z,34.37
2019-03-29T13:08:05.675Z,34.79
2019-03-29T13:10:33.921Z,34.32
2019-03-29T13:13:02.417Z,34.43
2019-03-29T13:15:30.643Z,35.21
2019-03-29T13:17:58.856Z,34.20
2019-03-29T13:20:27.098Z,34.62
2019-03-29T13:22:55.314Z,34.34
2019-03-29T13:25:23.533Z,35.09
2019-03-29T13:27:56.180Z,34.96
2019-03-29T13:30:22.630Z,35.33
2019-03-29T13:32:51.042Z,35.39
2019-03-29T13:35:19.262Z,35.38
2019-03-29T13:37:47.486Z,35.37
2019-03-29T13:40:15.721Z,35.39
2019-03-29T13:42:43.965Z,35.48
2019-03-29T13:45:12.163Z,37.06
2019-03-29T13:47:40.388Z,35.39
2019-03-29T13:50:08.676Z,35.85
2019-03-29T13:52:36.906Z,36.08
2019-03-29T13:55:06.024Z,35.30
2019-03-29T13:57:34.239Z,35.85
2019-03-29T14:00:02.473Z,35.94
2019-03-29T14:02:30.689Z,36.03
2019-03-29T14:04:58.912Z,36.18
2019-03-29T14:07:27.143Z,35.95
2019-03-29T14:09:55.391Z,36.21
2019-03-29T14:12:23.674Z,36.25
2019-03-29T14:14:51.917Z,36.48
2019-03-29T14:17:20.142Z,36.18
2019-03-29T14:19:48.355Z,36.46
2019-03-29T14:22:16.585Z,36.53
2019-03-29T14:24:44.802Z,36.81
2019-03-29T14:27:13.095Z,36.40
2019-03-29T14:29:41.313Z,36.49
2019-03-29T14:32:09.574Z,37.20
2019-03-29T14:34:37.788Z,37.46
2019-03-29T14:37:06.041Z,37.31
2019-03-29T14:39:34.230Z,37.43
2019-03-29T14:42:02.505Z,36.98
2019-03-29T14:44:30.753Z,37.11
2019-03-29T14:46:58.972Z,37.95
2019-03-29T14:49:27.188Z,37.96
2019-03-29T14:51:55.430Z,37.16
2019-03-29T14:54:23.669Z,37.25
2019-03-29T14:56:51.883Z,37.42
2019-03-29T14:59:20.118Z,37.52
2019-03-29T15:01:48.349Z,37.41
2019-03-29T15:04:16.575Z,37.66
2019-03-29T15:06:44.826Z,37.66
2019-03-29T15:09:13.052Z,37.55
2019-03-29T15:11:41.279Z,37.49
2019-03-29T15:14:09.559Z,37.74
2019-03-29T15:16:38.661Z,37.08
2019-03-29T15:19:06.873Z,37.38
2019-03-29T15:21:35.094Z,37.59
2019-03-29T15:24:03.329Z,37.25
2019-03-29T15:26:31.546Z,37.04
2019-03-29T15:28:59.779Z,38.49
2019-03-29T15:31:28.003Z,37.50
2019-03-29T15:33:56.252Z,37.30
2019-03-29T15:36:24.454Z,37.85
2019-03-29T15:38:52.703Z,37.62
2019-03-29T15:41:20.917Z,38.02
2019-03-29T15:43:49.133Z,38.44
2019-03-29T15:46:17.391Z,38.24
2019-03-29T15:48:45.631Z,38.34
2019-03-29T15:51:13.854Z,38.72
2019-03-29T15:53:42.071Z,38.88
2019-03-29T15:56:10.293Z,38.58
2019-03-29T15:58:38.511Z,38.86
2019-03-29T16:01:06.734Z,38.59
2019-03-29T16:03:34.979Z,39.13
2019-03-29T16:06:03.226Z,39.04
2019-03-29T16:08:31.444Z,39.50
2019-03-29T16:10:59.684Z,39.54
2019-03-29T16:13:27.954Z,40.05
2019-03-29T16:15:56.160Z,40.07
2019-03-29T16:18:24.379Z,40.21
2019-03-29T16:20:52.623Z,40.39
2019-03-29T16:23:20.847Z,40.50
2019-03-29T16:25:49.056Z,40.87
2019-03-29T16:28:17.298Z,41.18
2019-03-29T16:30:45.514Z,40.95
2019-03-29T16:33:13.737Z,41.25
2019-03-29T16:35:41.978Z,41.25
2019-03-29T16:38:10.190Z,41.64
2019-03-29T16:40:38.399Z,41.66
2019-03-29T16:43:06.632Z,42.11
2019-03-29T16:45:47.108Z,42.49
2019-03-29T16:48:06.789Z,42.48
2019-03-29T16:50:35.188Z,42.89
2019-03-29T16:53:03.408Z,43.04
2019-03-29T16:55:31.759Z,43.20
2019-03-29T16:57:59.971Z,44.08
2019-03-29T17:00:28.198Z,43.43
2019-03-29T17:02:56.413Z,44.23
2019-03-29T17:05:24.638Z,44.19
2019-03-29T17:07:52.859Z,44.38
2019-03-29T17:10:21.071Z,44.85
2019-03-29T17:12:52.038Z,45.19
2019-03-29T17:15:19.255Z,45.50
2019-03-29T17:17:47.474Z,45.63
2019-03-29T17:20:15.694Z,46.03
2019-03-29T17:22:43.917Z,46.12
2019-03-29T17:25:12.131Z,46.76
2019-03-29T17:27:40.385Z,46.80
2019-03-29T17:30:09.937Z,47.31
2019-03-29T17:32:38.161Z,48.30
2019-03-29T17:35:06.842Z,48.69
2019-03-29T17:37:35.076Z,49.14
2019-03-29T17:40:04.446Z,49.85
2019-03-29T17:42:32.675Z,50.46
2019-03-29T17:45:00.927Z,50.03
2019-03-29T17:47:29.191Z,51.06
2019-03-29T17:49:57.411Z,51.31
2019-03-29T17:52:25.645Z,52.05
2019-03-29T17:54:54.104Z,52.66
2019-03-29T17:57:22.431Z,53.36
2019-03-29T17:59:50.647Z,53.81
2019-03-29T18:02:19.015Z,54.04
2019-03-29T18:04:47.233Z,54.26
2019-03-29T18:07:15.457Z,54.35
2019-03-29T18:09:43.715Z,55.21
2019-03-29T18:12:11.926Z,55.90
2019-03-29T18:14:40.319Z,56.31
2019-03-29T18:17:08.560Z,55.93
2019-03-29T18:19:37.823Z,56.84
2019-03-29T18:22:06.293Z,57.41
2019-03-29T18:24:34.529Z,57.52
2019-03-29T18:27:02.745Z,58.41
2019-03-29T18:29:30.958Z,58.57
2019-03-29T18:31:59.254Z,58.99
2019-03-29T18:34:27.465Z,59.38
2019-03-29T18:36:55.704Z,59.58
2019-03-29T18:39:23.919Z,59.80
2019-03-29T18:41:52.149Z,59.91
2019-03-29T18:44:20.374Z,59.98
2019-03-29T18:46:48.633Z,60.00
2019-03-29T18:49:16.852Z,60.47
2019-03-29T18:51:45.074Z,60.79
2019-03-29T18:54:13.307Z,60.96
2019-03-29T18:56:41.522Z,61.23
2019-03-29T18:59:09.758Z,61.32
2019-03-29T19:01:37.974Z,61.88
2019-03-29T19:04:06.213Z,62.24
2019-03-29T19:06:34.434Z,62.34
2019-03-29T19:09:04.244Z,62.57
2019-03-29T19:11:32.481Z,62.74
2019-03-29T19:14:00.684Z,63.10
2019-03-29T19:16:28.931Z,63.40
2019-03-29T19:19:09.377Z,63.04
2019-03-29T19:21:27.123Z,63.20
2019-03-29T19:23:55.339Z,63.63
2019-03-29T19:26:23.589Z,63.85
2019-03-29T19:28:51.812Z,64.15
2019-03-29T19:31:20.446Z,64.39
2019-03-29T19:33:48.633Z,64.83
2019-03-29T19:36:16.876Z,64.88
2019-03-29T19:38:45.093Z,65.41
2019-03-29T19:41:13.318Z,65.35
2019-03-29T19:43:41.543Z,65.77
2019-03-29T19:46:09.762Z,65.85
2019-03-29T19:48:37.995Z,66.92
2019-03-29T19:51:06.216Z,66.65
2019-03-29T19:53:34.551Z,66.17
2019-03-29T19:56:02.780Z,66.86
2019-03-29T19:58:30.986Z,66.96
2019-03-29T20:00:59.373Z,67.41
2019-03-29T20:03:27.964Z,67.81
2019-03-29T20:05:56.515Z,67.79
2019-03-29T20:08:24.698Z,67.64
2019-03-29T20:10:52.916Z,67.97
2019-03-29T20:13:21.133Z,68.36
2019-03-29T20:15:49.357Z,68.49
2019-03-29T20:18:17.683Z,68.73
2019-03-29T20:20:45.879Z,69.23
2019-03-29T20:23:14.106Z,69.20
2019-03-29T20:25:42.369Z,69.42
2019-03-29T20:28:10.612Z,69.87
2019-03-29T20:30:38.820Z,69.46
2019-03-29T20:33:07.075Z,68.82
2019-03-29T20:35:35.305Z,69.64
2019-03-29T20:38:03.530Z,69.90
2019-03-29T20:40:32.173Z,70.64
2019-03-29T20:43:00.658Z,70.69
2019-03-29T20:45:28.872Z,70.91
2019-03-29T20:47:57.289Z,70.67
2019-03-29T20:50:25.515Z,70.55
2019-03-29T20:52:53.760Z,70.28
2019-03-29T20:55:21.973Z,69.85
2019-03-29T20:57:50.202Z,70.30
2019-03-29T21:00:18.566Z,70.67
2019-03-29T21:02:46.778Z,70.05
2019-03-29T21:05:15.037Z,70.92
2019-03-29T21:07:43.254Z,71.27
2019-03-29T21:10:12.529Z,70.80
2019-03-29T21:12:40.752Z,71.14
2019-03-29T21:15:08.955Z,71.41
2019-03-29T21:17:37.352Z,72.05
2019-03-29T21:20:08.242Z,73.30
2019-03-29T21:22:36.544Z,73.17
2019-03-29T21:25:06.760Z,72.99
2019-03-29T21:27:35.002Z,73.46
2019-03-29T21:30:03.269Z,73.81
2019-03-29T21:32:31.480Z,73.42
2019-03-29T21:34:59.834Z,73.37
2019-03-29T21:37:28.044Z,73.80
2019-03-29T21:39:56.268Z,73.57
2019-03-29T21:42:24.477Z,71.92
2019-03-29T21:44:52.723Z,72.61
2019-03-29T21:47:20.937Z,73.79
2019-03-29T21:49:49.186Z,72.73
2019-03-29T21:52:17.374Z,73.65
2019-03-29T21:54:45.918Z,73.46
2019-03-29T21:57:14.265Z,73.93
2019-03-29T21:59:42.474Z,73.93
2019-03-29T22:02:10.689Z,73.99
2019-03-29T22:04:38.921Z,74.37
2019-03-29T22:07:07.178Z,73.62
2019-03-29T22:09:37.218Z,74.39
2019-03-29T22:12:05.335Z,74.40
2019-03-29T22:14:33.546Z,75.50
2019-03-29T22:17:01.762Z,74.86
2019-03-29T22:19:29.986Z,75.06
2019-03-29T22:21:58.198Z,74.48
2019-03-29T22:24:26.427Z,75.65
2019-03-29T22:26:54.641Z,75.39
2019-03-29T22:29:22.891Z,74.18
2019-03-29T22:31:51.106Z,74.68
2019-03-29T22:34:19.324Z,74.40
2019-03-29T22:36:47.545Z,74.40
2019-03-29T22:39:15.791Z,75.24
2019-03-29T22:41:43.999Z,74.36
2019-03-29T22:44:12.230Z,74.66
2019-03-29T22:46:40.518Z,74.49
2019-03-29T22:49:08.743Z,74.37
2019-03-29T22:51:36.953Z,73.96
2019-03-29T22:54:05.176Z,74.81
2019-03-29T22:56:33.413Z,75.22
2019-03-29T22:59:01.669Z,75.31
2019-03-29T23:01:30.618Z,75.91
2019-03-29T23:03:58.838Z,75.34
2019-03-29T23:06:27.078Z,74.89
2019-03-29T23:08:55.282Z,75.09
2019-03-29T23:11:23.504Z,74.81
2019-03-29T23:13:51.720Z,74.47
2019-03-29T23:16:19.945Z,74.94
2019-03-29T23:18:48.170Z,75.96
2019-03-29T23:21:16.398Z,76.77
2019-03-29T23:23:44.616Z,75.88
2019-03-29T23:26:12.879Z,76.73
2019-03-29T23:28:41.099Z,76.41
2019-03-29T23:31:09.313Z,76.47
2019-03-29T23:33:37.539Z,76.58
2019-03-29T23:36:05.796Z,76.33
2019-03-29T23:38:34.015Z,76.34
2019-03-29T23:41:02.235Z,76.74
2019-03-29T23:43:30.451Z,76.17
2019-03-29T23:45:58.738Z,76.58
2019-03-29T23:48:26.990Z,76.18
2019-03-29T23:50:55.219Z,77.37
2019-03-29T23:53:23.452Z,77.33
2019-03-29T23:55:51.667Z,77.35
2019-03-29T23:58:19.906Z,77.83
